createdAt,value
2022-09-12T00:01:51.724Z,45.72
2022-09-12T00:04:22.520Z,45.70
2022-09-12T00:06:53.871Z,45.78
2022-09-12T00:09:24.613Z,45.86
2022-09-12T00:11:55.253Z,45.71
2022-09-12T00:14:25.990Z,45.98
2022-09-12T00:17:00.700Z,45.76
2022-09-12T00:19:31.946Z,45.80
2022-09-12T00:22:02.655Z,45.91
2022-09-12T00:24:34.530Z,45.93
2022-09-12T00:27:05.626Z,45.91
2022-09-12T00:29:36.550Z,45.90
2022-09-12T00:32:07.346Z,46.01
2022-09-12T00:34:38.916Z,45.92
2022-09-12T00:37:09.557Z,45.97
2022-09-12T00:39:40.456Z,45.98
2022-09-12T00:42:13.303Z,46.00
2022-09-12T00:44:52.923Z,45.87
2022-09-12T00:47:24.611Z,45.88
2022-09-12T00:50:02.543Z,45.81
2022-09-12T00:52:38.337Z,45.90
2022-09-12T00:55:14.278Z,45.94
2022-09-12T00:57:51.407Z,46.03
2022-09-12T01:00:24.264Z,45.91
2022-09-12T01:02:58.606Z,45.89
2022-09-12T01:05:31.826Z,45.80
2022-09-12T01:08:04.797Z,45.87
2022-09-12T01:10:38.816Z,46.08
2022-09-12T01:13:11.391Z,45.83
2022-09-12T01:15:42.848Z,45.79
2022-09-12T01:18:26.084Z,45.92
2022-09-12T01:21:17.104Z,45.96
2022-09-12T01:24:34.951Z,45.73
2022-09-12T01:27:45.487Z,45.86
2022-09-12T01:30:45.960Z,45.82
2022-09-12T01:33:36.021Z,45.97
2022-09-12T01:36:35.074Z,45.94
2022-09-12T01:39:12.026Z,45.82
2022-09-12T01:41:54.563Z,45.90
2022-09-12T01:44:36.439Z,45.96
2022-09-12T01:47:11.190Z,45.94
2022-09-12T01:49:52.081Z,46.10
2022-09-12T01:52:27.813Z,46.06
2022-09-12T01:55:06.552Z,46.13
2022-09-12T01:57:45.792Z,46.13
2022-09-12T02:00:17.451Z,45.95
2022-09-12T02:02:53.198Z,45.93
2022-09-12T02:05:30.281Z,45.94
2022-09-12T02:08:08.208Z,45.94
2022-09-12T02:10:47.621Z,46.06
2022-09-12T02:13:25.037Z,46.06
2022-09-12T02:16:00.468Z,46.01
2022-09-12T02:18:34.555Z,46.11
2022-09-12T02:21:09.104Z,45.87
2022-09-12T02:23:43.612Z,46.07
2022-09-12T02:26:21.724Z,46.12
2022-09-12T02:28:52.802Z,46.01
2022-09-12T02:31:28.860Z,46.20
2022-09-12T02:34:10.402Z,46.11
2022-09-12T02:36:51.183Z,46.32
2022-09-12T02:39:22.032Z,46.36
2022-09-12T02:41:54.870Z,46.17
2022-09-12T02:44:28.204Z,46.24
2022-09-12T02:47:04.576Z,46.20
2022-09-12T02:49:35.732Z,46.11
2022-09-12T02:52:07.019Z,46.22
2022-09-12T02:54:38.307Z,46.03
2022-09-12T02:57:22.387Z,46.17
2022-09-12T02:59:57.196Z,46.17
2022-09-12T03:02:39.168Z,46.37
2022-09-12T03:05:26.023Z,46.32
2022-09-12T03:08:22.722Z,46.30
2022-09-12T03:11:09.948Z,46.38
2022-09-12T03:13:52.543Z,46.50
2022-09-12T03:16:30.821Z,46.56
2022-09-12T03:19:10.828Z,46.60
2022-09-12T03:21:54.141Z,46.52
2022-09-12T03:24:33.035Z,46.53
2022-09-12T03:27:11.362Z,46.53
2022-09-12T03:29:44.801Z,46.63
2022-09-12T03:32:15.704Z,46.34
2022-09-12T03:34:46.648Z,46.29
2022-09-12T03:37:17.427Z,46.06
2022-09-12T03:39:48.140Z,46.13
2022-09-12T03:42:19.097Z,46.13
2022-09-12T03:44:49.803Z,46.21
2022-09-12T03:47:20.542Z,46.04
2022-09-12T03:49:52.620Z,45.95
2022-09-12T03:52:23.373Z,46.05
2022-09-12T03:54:54.603Z,46.09
2022-09-12T03:57:25.212Z,45.90
2022-09-12T03:59:55.869Z,46.13
2022-09-12T04:02:26.755Z,46.09
2022-09-12T04:04:57.651Z,46.03
2022-09-12T04:07:28.596Z,46.11
2022-09-12T04:09:59.279Z,46.18
2022-09-12T04:12:30.182Z,46.02
2022-09-12T04:15:00.910Z,46.13
2022-09-12T04:17:31.855Z,46.15
2022-09-12T04:20:02.677Z,46.08
2022-09-12T04:22:33.944Z,46.17
2022-09-12T04:25:05.373Z,46.13
2022-09-12T04:27:36.766Z,46.02
2022-09-12T04:30:09.809Z,45.93
2022-09-12T04:32:41.604Z,46.09
2022-09-12T04:35:14.093Z,45.96
2022-09-12T04:37:44.750Z,45.99
2022-09-12T04:40:15.677Z,45.92
2022-09-12T04:42:46.499Z,45.92
2022-09-12T04:45:17.193Z,45.83
2022-09-12T04:47:47.825Z,45.79
2022-09-12T04:50:18.737Z,45.89
2022-09-12T04:52:54.049Z,45.76
2022-09-12T04:55:26.262Z,45.89
2022-09-12T04:57:56.871Z,45.81
2022-09-12T05:00:27.808Z,45.74
2022-09-12T05:02:58.549Z,45.78
2022-09-12T05:05:29.255Z,45.56
2022-09-12T05:07:59.969Z,45.58
2022-09-12T05:10:31.372Z,45.51
2022-09-12T05:13:02.317Z,45.47
2022-09-12T05:15:33.138Z,45.37
2022-09-12T05:18:03.800Z,45.47
2022-09-12T05:20:35.863Z,45.37
2022-09-12T05:23:06.508Z,45.27
2022-09-12T05:25:37.120Z,45.35
2022-09-12T05:28:07.842Z,45.32
2022-09-12T05:30:38.604Z,45.29
2022-09-12T05:33:09.370Z,45.35
2022-09-12T05:35:40.486Z,45.31
2022-09-12T05:38:11.176Z,45.14
2022-09-12T05:40:41.818Z,45.32
2022-09-12T05:43:13.323Z,45.18
2022-09-12T05:45:44.200Z,45.25
2022-09-12T05:48:14.927Z,45.14
2022-09-12T05:50:46.313Z,45.28
2022-09-12T05:53:17.445Z,45.21
2022-09-12T05:55:48.065Z,45.22
2022-09-12T05:58:18.983Z,45.08
2022-09-12T06:00:49.918Z,45.08
2022-09-12T06:03:21.067Z,45.05
2022-09-12T06:05:51.677Z,45.01
2022-09-12T06:08:22.685Z,45.09
2022-09-12T06:10:53.299Z,45.11
2022-09-12T06:13:24.396Z,45.00
2022-09-12T06:15:55.526Z,44.79
2022-09-12T06:18:26.231Z,45.02
2022-09-12T06:20:56.866Z,45.12
2022-09-12T06:23:27.994Z,45.08
2022-09-12T06:25:58.633Z,45.10
2022-09-12T06:28:30.109Z,45.00
2022-09-12T06:31:07.469Z,44.96
2022-09-12T06:33:39.748Z,44.81
2022-09-12T06:36:13.362Z,44.90
2022-09-12T06:38:44.165Z,44.98
2022-09-12T06:41:16.156Z,44.87
2022-09-12T06:43:46.794Z,44.75
2022-09-12T06:46:17.793Z,44.93
2022-09-12T06:48:48.899Z,44.81
2022-09-12T06:51:21.281Z,44.89
2022-09-12T06:53:52.715Z,44.85
2022-09-12T06:56:25.195Z,44.84
2022-09-12T06:58:57.380Z,44.75
2022-09-12T07:01:29.672Z,44.84
2022-09-12T07:04:02.316Z,44.61
2022-09-12T07:06:37.016Z,44.67
2022-09-12T07:09:10.075Z,44.73
2022-09-12T07:11:43.330Z,44.66
2022-09-12T07:14:15.540Z,44.76
2022-09-12T07:16:46.467Z,44.81
2022-09-12T07:19:17.191Z,44.76
2022-09-12T07:21:50.264Z,44.85
2022-09-12T07:24:20.912Z,44.69
2022-09-12T07:26:51.647Z,44.78
2022-09-12T07:29:38.192Z,44.78
2022-09-12T07:32:09.374Z,44.77
2022-09-12T07:34:40.350Z,44.62
2022-09-12T07:37:11.025Z,44.66
2022-09-12T07:39:41.858Z,44.72
2022-09-12T07:42:13.288Z,44.67
2022-09-12T07:44:44.565Z,44.78
2022-09-12T07:47:15.461Z,44.59
2022-09-12T07:49:46.210Z,44.72
2022-09-12T07:52:16.841Z,44.74
2022-09-12T07:54:47.878Z,44.80
2022-09-12T07:57:18.657Z,44.63
2022-09-12T07:59:52.994Z,44.83
2022-09-12T08:02:24.140Z,44.74
2022-09-12T08:04:54.866Z,44.88
2022-09-12T08:07:25.976Z,44.76
2022-09-12T08:09:57.031Z,44.62
2022-09-12T08:12:28.485Z,44.48
2022-09-12T08:14:59.314Z,44.40
2022-09-12T08:17:30.656Z,44.54
2022-09-12T08:20:01.564Z,44.50
2022-09-12T08:22:33.224Z,44.45
2022-09-12T08:25:04.239Z,44.28
2022-09-12T08:27:34.950Z,44.27
2022-09-12T08:30:06.857Z,44.29
2022-09-12T08:32:38.719Z,44.29
2022-09-12T08:35:11.075Z,44.11
2022-09-12T08:37:41.742Z,44.19
2022-09-12T08:40:19.071Z,44.00
2022-09-12T08:43:01.765Z,44.04
2022-09-12T08:45:39.624Z,44.12
2022-09-12T08:48:13.909Z,44.07
2022-09-12T08:50:49.823Z,43.92
2022-09-12T08:53:24.488Z,44.12
2022-09-12T08:55:59.406Z,44.28
2022-09-12T08:58:36.911Z,44.16
2022-09-12T09:01:13.952Z,44.24
2022-09-12T09:04:06.027Z,44.00
2022-09-12T09:06:56.788Z,43.86
2022-09-12T09:09:36.553Z,44.00
2022-09-12T09:12:13.745Z,43.93
2022-09-12T09:15:14.825Z,43.81
2022-09-12T09:17:49.989Z,43.74
2022-09-12T09:20:30.133Z,43.84
2022-09-12T09:23:08.476Z,43.75
2022-09-12T09:25:50.244Z,43.63
2022-09-12T09:28:26.779Z,43.86
2022-09-12T09:30:57.721Z,43.58
2022-09-12T09:33:34.289Z,43.72
2022-09-12T09:36:18.287Z,43.74
2022-09-12T09:38:54.318Z,43.46
2022-09-12T09:41:43.917Z,43.47
2022-09-12T09:44:15.085Z,43.79
2022-09-12T09:46:45.915Z,43.62
2022-09-12T09:49:18.182Z,43.51
2022-09-12T09:51:49.512Z,43.64
2022-09-12T09:54:26.043Z,43.67
2022-09-12T09:56:57.351Z,43.78
2022-09-12T09:59:32.196Z,43.54
2022-09-12T10:02:23.253Z,43.58
2022-09-12T10:04:59.516Z,43.81
2022-09-12T10:07:30.343Z,43.72
2022-09-12T10:10:19.375Z,43.62
2022-09-12T10:12:50.286Z,43.58
2022-09-12T10:15:23.055Z,43.22
2022-09-12T10:17:55.547Z,43.38
2022-09-12T10:20:39.140Z,43.30
2022-09-12T10:23:31.504Z,43.25
2022-09-12T10:26:04.326Z,43.49
2022-09-12T10:28:39.415Z,43.26
2022-09-12T10:31:15.151Z,43.14
2022-09-12T10:33:52.896Z,43.27
2022-09-12T10:36:24.812Z,43.39
2022-09-12T10:38:59.234Z,43.36
2022-09-12T10:41:39.942Z,43.36
2022-09-12T10:44:16.346Z,43.22
2022-09-12T10:46:47.393Z,43.15
2022-09-12T10:49:24.618Z,43.23
2022-09-12T10:51:56.868Z,43.19
2022-09-12T10:54:29.716Z,43.17
2022-09-12T10:57:17.081Z,43.32
2022-09-12T11:00:05.352Z,43.13
2022-09-12T11:02:49.733Z,43.16
2022-09-12T11:05:36.943Z,43.20
2022-09-12T11:08:20.251Z,43.27
2022-09-12T11:10:59.953Z,43.21
2022-09-12T11:13:54.304Z,43.16
2022-09-12T11:16:35.849Z,43.21
2022-09-12T11:19:22.003Z,43.21
2022-09-12T11:22:09.579Z,43.19
2022-09-12T11:25:08.918Z,43.29
2022-09-12T11:27:56.189Z,43.14
2022-09-12T11:30:27.938Z,43.33
2022-09-12T11:33:16.093Z,43.23
2022-09-12T11:35:55.281Z,43.12
2022-09-12T11:38:30.970Z,43.04
2022-09-12T11:41:05.000Z,42.93
2022-09-12T11:43:40.941Z,43.16
2022-09-12T11:46:19.283Z,42.85
2022-09-12T11:48:57.967Z,43.19
2022-09-12T11:51:31.956Z,42.97
2022-09-12T11:54:13.131Z,42.96
2022-09-12T11:56:46.600Z,42.88
2022-09-12T11:59:19.762Z,42.87
2022-09-12T12:01:56.487Z,42.96
2022-09-12T12:04:35.919Z,42.84
2022-09-12T12:07:08.687Z,42.78
2022-09-12T12:09:47.347Z,42.69
2022-09-12T12:12:24.922Z,42.63
2022-09-12T12:14:57.811Z,42.70
2022-09-12T12:17:29.829Z,42.71
2022-09-12T12:20:08.156Z,42.86
2022-09-12T12:22:52.027Z,42.77
2022-09-12T12:25:42.702Z,42.88
2022-09-12T12:28:34.864Z,42.66
2022-09-12T12:31:06.019Z,42.89
2022-09-12T12:33:55.844Z,42.81
2022-09-12T12:36:44.605Z,42.64
2022-09-12T12:40:05.837Z,42.79
2022-09-12T12:43:06.230Z,42.81
2022-09-12T12:46:04.595Z,42.93
2022-09-12T12:48:45.756Z,42.84
2022-09-12T12:51:36.562Z,42.64
2022-09-12T12:54:28.455Z,42.60
2022-09-12T12:57:16.790Z,42.97
2022-09-12T12:59:52.949Z,42.78
2022-09-12T13:02:30.416Z,42.89
2022-09-12T13:05:04.106Z,42.84
2022-09-12T13:07:38.389Z,42.80
2022-09-12T13:10:23.335Z,42.88
2022-09-12T13:12:54.921Z,42.85
2022-09-12T13:15:50.596Z,42.73
2022-09-12T13:18:27.883Z,42.40
2022-09-12T13:21:10.318Z,42.88
2022-09-12T13:23:41.360Z,42.33
2022-09-12T13:26:22.009Z,42.82
2022-09-12T13:29:09.961Z,42.66
2022-09-12T13:31:45.367Z,42.48
2022-09-12T13:34:22.192Z,42.60
2022-09-12T13:37:11.454Z,42.56
2022-09-12T13:39:49.726Z,42.60
2022-09-12T13:42:40.945Z,42.50
2022-09-12T13:45:20.719Z,42.59
2022-09-12T13:47:58.478Z,42.46
2022-09-12T13:50:32.994Z,42.64
2022-09-12T13:53:08.381Z,42.76
2022-09-12T13:55:41.762Z,42.56
2022-09-12T13:58:21.152Z,42.53
2022-09-12T14:01:03.870Z,42.45
2022-09-12T14:03:58.929Z,42.48
2022-09-12T14:06:29.925Z,42.62
2022-09-12T14:09:02.543Z,42.31
2022-09-12T14:11:35.010Z,42.60
2022-09-12T14:14:19.886Z,42.39
2022-09-12T14:16:54.908Z,42.69
2022-09-12T14:19:29.378Z,42.60
2022-09-12T14:22:02.262Z,42.50
2022-09-12T14:24:33.535Z,42.47
2022-09-12T14:27:05.741Z,42.87
2022-09-12T14:29:36.573Z,42.92
2022-09-12T14:32:18.691Z,42.94
2022-09-12T14:35:19.458Z,42.84
2022-09-12T14:37:53.163Z,42.58
2022-09-12T14:40:25.092Z,42.76
2022-09-12T14:43:01.027Z,42.80
2022-09-12T14:45:33.649Z,42.84
2022-09-12T14:48:05.672Z,42.83
2022-09-12T14:50:38.248Z,42.80
2022-09-12T14:53:24.959Z,42.95
2022-09-12T14:56:00.940Z,43.00
2022-09-12T14:58:33.399Z,42.77
2022-09-12T15:01:22.494Z,42.81
2022-09-12T15:03:56.539Z,42.89
2022-09-12T15:06:31.507Z,42.80
2022-09-12T15:09:04.411Z,42.95
2022-09-12T15:11:35.300Z,42.93
2022-09-12T15:14:15.806Z,42.67
2022-09-12T15:16:46.624Z,42.98
2022-09-12T15:19:17.922Z,42.91
2022-09-12T15:21:48.840Z,42.89
2022-09-12T15:24:19.842Z,42.91
2022-09-12T15:26:51.324Z,42.86
2022-09-12T15:29:22.738Z,42.81
2022-09-12T15:31:54.223Z,42.94
2022-09-12T15:34:25.043Z,42.99
2022-09-12T15:36:56.011Z,42.98
2022-09-12T15:39:27.592Z,42.74
2022-09-12T15:41:58.725Z,42.96
2022-09-12T15:44:29.553Z,42.87
2022-09-12T15:47:00.387Z,42.92
2022-09-12T15:49:31.238Z,43.02
2022-09-12T15:52:02.613Z,43.16
2022-09-12T15:54:33.528Z,42.89
2022-09-12T15:57:04.370Z,42.90
2022-09-12T15:59:35.312Z,42.98
2022-09-12T16:02:06.322Z,43.16
2022-09-12T16:04:37.332Z,43.04
2022-09-12T16:07:08.347Z,43.09
2022-09-12T16:09:39.650Z,43.08
2022-09-12T16:12:10.569Z,43.07
2022-09-12T16:14:41.307Z,43.05
2022-09-12T16:17:13.259Z,43.07
2022-09-12T16:19:44.184Z,43.15
2022-09-12T16:22:15.130Z,43.16
2022-09-12T16:24:45.883Z,43.10
2022-09-12T16:27:17.745Z,43.09
2022-09-12T16:29:48.689Z,43.06
2022-09-12T16:32:19.612Z,42.93
2022-09-12T16:34:51.013Z,42.96
2022-09-12T16:37:22.058Z,43.07
2022-09-12T16:39:52.785Z,43.17
2022-09-12T16:42:23.608Z,43.14
2022-09-12T16:44:54.332Z,43.08
2022-09-12T16:47:25.193Z,43.15
2022-09-12T16:49:56.009Z,42.87
2022-09-12T16:52:26.853Z,43.01
2022-09-12T16:54:57.710Z,43.16
2022-09-12T16:57:28.538Z,43.04
2022-09-12T16:59:59.474Z,42.97
2022-09-12T17:02:30.260Z,42.95
2022-09-12T17:05:01.297Z,43.25
2022-09-12T17:07:32.115Z,43.23
2022-09-12T17:10:02.937Z,43.19
2022-09-12T17:12:33.573Z,43.43
2022-09-12T17:15:05.109Z,43.25
2022-09-12T17:17:35.983Z,43.24
2022-09-12T17:20:07.813Z,43.26
2022-09-12T17:22:38.593Z,43.41
2022-09-12T17:25:11.120Z,43.20
2022-09-12T17:27:42.037Z,43.33
2022-09-12T17:30:14.878Z,43.11
2022-09-12T17:32:45.539Z,43.16
2022-09-12T17:35:16.732Z,42.96
2022-09-12T17:37:47.774Z,42.98
2022-09-12T17:40:19.086Z,42.91
2022-09-12T17:42:50.322Z,42.99
2022-09-12T17:45:21.409Z,43.09
2022-09-12T17:47:52.590Z,43.02
2022-09-12T17:50:32.459Z,43.29
2022-09-12T17:53:05.238Z,43.32
2022-09-12T17:55:39.568Z,43.20
2022-09-12T17:58:11.036Z,43.14
2022-09-12T18:00:59.489Z,43.13
2022-09-12T18:03:30.270Z,43.27
2022-09-12T18:06:01.077Z,43.47
2022-09-12T18:08:31.768Z,43.29
2022-09-12T18:11:08.498Z,43.32
2022-09-12T18:13:39.544Z,43.51
2022-09-12T18:16:12.509Z,43.54
2022-09-12T18:18:43.937Z,43.52
2022-09-12T18:21:15.053Z,43.45
2022-09-12T18:23:45.964Z,43.39
2022-09-12T18:26:17.128Z,43.43
2022-09-12T18:28:47.929Z,43.59
2022-09-12T18:31:21.184Z,43.52
2022-09-12T18:33:52.659Z,43.65
2022-09-12T18:36:23.997Z,43.42
2022-09-12T18:38:54.850Z,43.49
2022-09-12T18:41:26.927Z,43.67
2022-09-12T18:43:59.997Z,43.68
2022-09-12T18:46:33.014Z,43.71
2022-09-12T18:49:05.080Z,43.80
2022-09-12T18:51:40.197Z,43.82
2022-09-12T18:54:15.696Z,44.00
2022-09-12T18:56:47.763Z,44.01
2022-09-12T18:59:19.065Z,43.89
2022-09-12T19:01:50.411Z,43.86
2022-09-12T19:04:21.370Z,43.88
2022-09-12T19:06:52.215Z,43.95
2022-09-12T19:09:23.872Z,43.91
2022-09-12T19:11:54.864Z,43.88
2022-09-12T19:14:27.466Z,43.98
2022-09-12T19:16:58.443Z,43.67
2022-09-12T19:19:29.350Z,43.67
2022-09-12T19:22:01.420Z,43.84
2022-09-12T19:24:32.290Z,43.91
2022-09-12T19:27:03.209Z,43.87
2022-09-12T19:29:34.158Z,43.86
2022-09-12T19:32:05.853Z,43.88
2022-09-12T19:34:36.546Z,43.74
2022-09-12T19:37:07.620Z,43.71
2022-09-12T19:39:38.288Z,43.73
2022-09-12T19:42:09.482Z,43.67
2022-09-12T19:44:40.244Z,43.59
2022-09-12T19:47:11.394Z,43.49
2022-09-12T19:49:42.543Z,43.65
2022-09-12T19:52:16.877Z,43.38
2022-09-12T19:54:48.559Z,43.54
2022-09-12T19:57:19.359Z,43.61
2022-09-12T19:59:50.245Z,43.52
2022-09-12T20:02:21.010Z,43.66
2022-09-12T20:04:51.979Z,43.77
2022-09-12T20:07:22.856Z,43.76
2022-09-12T20:09:55.151Z,43.66
2022-09-12T20:12:26.162Z,43.77
2022-09-12T20:14:57.134Z,43.89
2022-09-12T20:17:28.232Z,43.96
2022-09-12T20:19:59.086Z,43.96
2022-09-12T20:22:30.061Z,44.02
2022-09-12T20:25:01.060Z,44.21
2022-09-12T20:27:31.897Z,43.97
2022-09-12T20:30:02.777Z,44.08
2022-09-12T20:32:33.682Z,44.10
2022-09-12T20:35:04.726Z,44.08
2022-09-12T20:37:36.033Z,43.97
2022-09-12T20:40:08.621Z,44.06
2022-09-12T20:42:39.901Z,43.87
2022-09-12T20:45:11.919Z,43.98
2022-09-12T20:47:42.591Z,44.00
2022-09-12T20:50:14.684Z,43.98
2022-09-12T20:52:45.459Z,43.93
2022-09-12T20:55:16.366Z,43.94
2022-09-12T20:57:47.104Z,43.90
2022-09-12T21:00:18.733Z,43.89
2022-09-12T21:02:50.857Z,43.85
2022-09-12T21:05:21.872Z,44.04
2022-09-12T21:07:52.620Z,44.08
2022-09-12T21:10:23.278Z,43.91
2022-09-12T21:12:54.805Z,43.77
2022-09-12T21:15:25.462Z,43.68
2022-09-12T21:17:56.483Z,44.06
2022-09-12T21:20:27.222Z,43.85
2022-09-12T21:22:57.926Z,43.99
2022-09-12T21:25:29.213Z,43.90
2022-09-12T21:27:59.926Z,43.76
2022-09-12T21:30:30.746Z,43.80
2022-09-12T21:33:01.431Z,43.88
2022-09-12T21:35:32.165Z,43.58
2022-09-12T21:38:02.870Z,43.71
2022-09-12T21:40:33.946Z,43.42
2022-09-12T21:43:08.113Z,43.42
2022-09-12T21:45:41.555Z,43.58
2022-09-12T21:48:12.311Z,43.36
2022-09-12T21:50:43.042Z,43.35
2022-09-12T21:53:13.797Z,43.30
2022-09-12T21:55:44.728Z,43.35
2022-09-12T21:58:15.485Z,43.33
2022-09-12T22:00:46.670Z,43.05
2022-09-12T22:03:18.164Z,43.04
2022-09-12T22:05:57.450Z,43.08
2022-09-12T22:08:28.694Z,43.11
2022-09-12T22:11:02.298Z,42.98
2022-09-12T22:13:33.859Z,43.07
2022-09-12T22:16:05.231Z,43.07
2022-09-12T22:18:36.956Z,42.99
2022-09-12T22:21:09.852Z,42.82
2022-09-12T22:23:58.635Z,42.94
2022-09-12T22:26:29.589Z,42.89
2022-09-12T22:29:01.153Z,42.88
2022-09-12T22:31:32.115Z,42.92
2022-09-12T22:34:03.589Z,42.73
2022-09-12T22:36:38.256Z,42.39
2022-09-12T22:39:10.062Z,42.39
2022-09-12T22:41:40.881Z,42.16
2022-09-12T22:44:12.317Z,42.14
2022-09-12T22:46:43.313Z,42.37
2022-09-12T22:49:14.234Z,42.32
2022-09-12T22:51:44.960Z,42.26
2022-09-12T22:54:15.962Z,42.31
2022-09-12T22:56:47.050Z,42.34
2022-09-12T22:59:18.442Z,42.27
2022-09-12T23:01:49.606Z,42.22
2022-09-12T23:04:20.312Z,42.30
2022-09-12T23:06:51.134Z,42.18
2022-09-12T23:09:22.031Z,42.09
2022-09-12T23:11:53.065Z,42.11
2022-09-12T23:14:23.693Z,41.97
2022-09-12T23:16:54.476Z,42.28
2022-09-12T23:19:25.200Z,42.07
2022-09-12T23:21:56.278Z,42.31
2022-09-12T23:24:27.094Z,42.04
2022-09-12T23:26:57.711Z,42.24
2022-09-12T23:29:28.897Z,42.07
2022-09-12T23:31:59.637Z,42.31
2022-09-12T23:34:31.089Z,42.18
2022-09-12T23:37:01.827Z,42.31
2022-09-12T23:39:32.872Z,42.55
2022-09-12T23:42:03.715Z,42.56
2022-09-12T23:44:34.657Z,42.66
2022-09-12T23:47:05.601Z,43.03
2022-09-12T23:49:36.245Z,42.94
2022-09-12T23:52:07.349Z,43.18
2022-09-12T23:54:38.015Z,43.03
2022-09-12T23:57:08.858Z,43.22
2022-09-12T23:59:39.450Z,43.52
